Altoona, AL

1:14 PM CDT on September 30, 2014 (GMT -0500)
Gadsden Municipal | Change Station
CLOSE
Current Station
Airport
Location: Gadsden,
Elevation: 568 ft
Nearby Weather Stations

Elev 568 ft 33.97 °N, 86.09 °W | Updated 19 minutes ago

Clear
Clear
79 °F
Feels Like 79 °F
N
0
Wind Variable Wind from North

Today
High -- | Low -- °F
--% Chance of Precip.
Yesterday
High -- | Low -- °F
Precip. -- in
6:38 AM 6:30 PM
Waxing Crescent, 39% visible
Pressure 29.95 in
Visibility 8.0 miles
Clouds Scattered Clouds 3000 ft
Dew Point 61 °F
Humidity 54%
Rainfall 0.00 in
Snow Depth Not available.
UV 6 out of 12
Pollen 5.80 out of 12
Ozone Good
PM2.5 Good
Flu Activity Not available.
METAR KGAD 301755Z 00000KT 8SM SCT030 26/16 A2995 RMK AO1 10260 20180 57014

More Conditions Fewer Conditions

Pressure 29.95 in
Visibility 8.0 miles
Clouds Scattered Clouds 3000 ft
Dew Point 61 °F
Humidity 54%
Rainfall 0.00 in
Snow Depth Not available.
UV 6 out of 12
Pollen 5.80 out of 12
Ozone Good
PM2.5 Good
Flu Activity Not available.
METAR KGAD 301755Z 00000KT 8SM SCT030 26/16 A2995 RMK AO1 10260 20180 57014

More Conditions Fewer Conditions

10-Day Weather Forecast

Almanac

Astronomy

Sep. 30, 2014 Rise Set
Actual Time 6:38 AM CDT 6:30 PM CDT
Civil Twilight 6:14 AM CDT 6:55 PM CDT
Nautical Twilight 5:44 AM CDT 7:24 PM CDT
Astronomical Twilight 5:15 AM CDT 7:53 PM CDT
Moon 12:34 PM CDT 11:12 PM CDT
Length of Visible Light 12h 41m
Length of Day
11h 51m
Tomorrow will be 2m 6s shorter.
Waxing Crescent, 39% of the Moon is Illuminated
Today
Waxing Crescent
Oct 1
First Quarter
Oct 8
Full
Oct 15
Last Quarter
Oct 23
New

Today's Extremes

State Highs State Lows

Community

WunderPhotos

Upload Photos

1,757,710 photos uploaded!

Nearby

Air Quality

  Air Quality AQ Index Pollutant
Yesterday Good
PM10
Yesterday Good
OZONE
Current Good
PM2.5
Current Good
OZONE
Tuesday Moderate
PM2.5
Tuesday Good
OZONE

Snow Depth

Station Depth Elevation
No new snow has been reported.

Earthquake Activity

City Distance Mag. Time & Date
No recent earthquake activity has been reported nearby.
Minimum magnitude displayed is 2.5.

Coastal Water Temperatures

Place Temperature
No Stations Reporting

Nearby Weather Stations